createdAt,value
2018-07-08T00:00:58.903Z,100845.30
2018-07-08T00:03:28.230Z,100851.69
2018-07-08T00:05:57.678Z,100844.17
2018-07-08T00:08:27.196Z,100850.99
2018-07-08T00:10:58.370Z,100846.16
2018-07-08T00:13:27.670Z,100848.88
2018-07-08T00:15:56.923Z,100854.67
2018-07-08T00:18:26.618Z,100860.29
2018-07-08T00:20:56.585Z,100856.82
2018-07-08T00:23:25.945Z,100862.06
2018-07-08T00:25:55.194Z,100853.71
2018-07-08T00:28:24.432Z,100852.23
2018-07-08T00:30:53.714Z,100855.41
2018-07-08T00:33:22.878Z,100864.66
2018-07-08T00:35:52.238Z,100857.03
2018-07-08T00:38:21.475Z,100850.80
2018-07-08T00:40:50.719Z,100849.92
2018-07-08T00:43:19.986Z,100855.72
2018-07-08T00:45:49.207Z,100859.55
2018-07-08T00:48:18.463Z,100854.57
2018-07-08T00:50:47.929Z,100853.52
2018-07-08T00:53:17.277Z,100860.79
2018-07-08T00:55:46.618Z,100869.17
2018-07-08T00:58:15.823Z,100863.19
2018-07-08T01:00:45.278Z,100861.98
2018-07-08T01:03:14.514Z,100862.62
2018-07-08T01:05:43.735Z,100867.41
2018-07-08T01:08:12.991Z,100864.90
2018-07-08T01:10:42.342Z,100870.13
2018-07-08T01:13:11.636Z,100873.16
2018-07-08T01:15:40.931Z,100876.88
2018-07-08T01:18:10.203Z,100886.45
2018-07-08T01:20:39.441Z,100882.73
2018-07-08T01:23:08.716Z,100879.55
2018-07-08T01:25:49.066Z,100881.34
2018-07-08T01:28:18.273Z,100884.14
2018-07-08T01:30:47.672Z,100883.09
2018-07-08T01:33:16.869Z,100876.21
2018-07-08T01:35:46.219Z,100882.42
2018-07-08T01:38:15.475Z,100882.88
2018-07-08T01:40:45.616Z,100882.42
2018-07-08T01:43:14.916Z,100888.05
2018-07-08T01:45:44.215Z,100886.39
2018-07-08T01:48:13.522Z,100882.05
2018-07-08T01:50:42.826Z,100883.72
2018-07-08T01:53:12.193Z,100887.00
2018-07-08T01:55:41.552Z,100891.63
2018-07-08T01:58:10.932Z,100885.34
2018-07-08T02:00:40.330Z,100884.65
2018-07-08T02:03:09.906Z,100884.84
2018-07-08T02:05:39.344Z,100880.78
2018-07-08T02:08:08.710Z,100882.78
2018-07-08T02:10:38.294Z,100879.45
2018-07-08T02:13:07.550Z,100883.91
2018-07-08T02:15:37.112Z,100882.33
2018-07-08T02:18:06.449Z,100879.98
2018-07-08T02:20:35.858Z,100882.91
2018-07-08T02:23:05.147Z,100890.75
2018-07-08T02:25:34.470Z,100890.14
2018-07-08T02:28:03.930Z,100885.75
2018-07-08T02:30:33.178Z,100886.22
2018-07-08T02:33:02.503Z,100882.99
2018-07-08T02:35:32.369Z,100886.33
2018-07-08T02:38:01.652Z,100890.13
2018-07-08T02:40:30.861Z,100891.30
2018-07-08T02:43:00.040Z,100891.38
2018-07-08T02:45:29.258Z,100894.69
2018-07-08T02:47:58.447Z,100891.54
2018-07-08T02:50:27.789Z,100897.05
2018-07-08T02:52:57.044Z,100895.30
2018-07-08T02:55:26.272Z,100894.52
2018-07-08T02:57:55.585Z,100888.08
2018-07-08T03:00:24.847Z,100895.65
2018-07-08T03:02:54.103Z,100899.12
2018-07-08T03:05:23.349Z,100897.02
2018-07-08T03:07:52.703Z,100901.39
2018-07-08T03:10:21.970Z,100901.44
2018-07-08T03:12:51.263Z,100899.88
2018-07-08T03:15:20.534Z,100900.06
2018-07-08T03:17:49.785Z,100908.87
2018-07-08T03:20:19.048Z,100910.70
2018-07-08T03:22:48.369Z,100904.23
2018-07-08T03:25:17.731Z,100907.84
2018-07-08T03:27:46.973Z,100911.30
2018-07-08T03:30:16.252Z,100906.95
2018-07-08T03:32:45.603Z,100904.31
2018-07-08T03:35:15.031Z,100897.06
2018-07-08T03:37:44.291Z,100904.63
2018-07-08T03:40:13.591Z,100905.26
2018-07-08T03:42:43.137Z,100893.49
2018-07-08T03:45:12.345Z,100903.62
2018-07-08T03:47:41.603Z,100901.72
2018-07-08T03:50:10.902Z,100905.09
2018-07-08T03:52:40.176Z,100904.33
2018-07-08T03:55:09.486Z,100905.97
2018-07-08T03:57:38.786Z,100901.30
2018-07-08T04:00:08.093Z,100902.52
2018-07-08T04:02:37.392Z,100910.95
2018-07-08T04:05:06.696Z,100899.86
2018-07-08T04:07:36.010Z,100904.70
2018-07-08T04:10:05.290Z,100908.96
2018-07-08T04:12:34.601Z,100910.44
2018-07-08T04:15:03.861Z,100908.87
2018-07-08T04:17:33.292Z,100905.41
2018-07-08T04:20:02.674Z,100908.53
2018-07-08T04:22:32.022Z,100910.86
2018-07-08T04:25:01.278Z,100904.47
2018-07-08T04:27:30.483Z,100910.44
2018-07-08T04:29:59.652Z,100916.64
2018-07-08T04:32:28.890Z,100910.36
2018-07-08T04:34:58.131Z,100915.95
2018-07-08T04:37:27.383Z,100923.94
2018-07-08T04:39:56.691Z,100921.02
2018-07-08T04:42:26.001Z,100925.41
2018-07-08T04:44:55.342Z,100929.44
2018-07-08T04:47:24.719Z,100922.83
2018-07-08T04:49:53.950Z,100919.66
2018-07-08T04:52:23.507Z,100924.66
2018-07-08T04:54:52.871Z,100928.47
2018-07-08T04:57:22.310Z,100939.79
2018-07-08T04:59:51.556Z,100936.64
2018-07-08T05:02:20.797Z,100943.12
2018-07-08T05:04:50.274Z,100943.75
2018-07-08T05:07:19.817Z,100943.03
2018-07-08T05:09:49.181Z,100951.22
2018-07-08T05:12:18.582Z,100948.97
2018-07-08T05:14:47.810Z,100955.48
2018-07-08T05:17:17.126Z,100956.13
2018-07-08T05:19:46.398Z,100951.33
2018-07-08T05:22:15.618Z,100952.60
2018-07-08T05:24:44.883Z,100953.48
2018-07-08T05:27:14.110Z,100956.22
2018-07-08T05:29:43.423Z,100962.52
2018-07-08T05:32:12.842Z,100969.59
2018-07-08T05:34:42.107Z,100968.77
2018-07-08T05:37:11.737Z,100972.87
2018-07-08T05:39:41.002Z,100969.69
2018-07-08T05:42:10.229Z,100973.05
2018-07-08T05:44:39.424Z,100980.89
2018-07-08T05:47:08.743Z,100977.52
2018-07-08T05:49:38.092Z,100989.56
2018-07-08T05:52:07.335Z,100982.23
2018-07-08T05:54:36.752Z,100992.78
2018-07-08T05:57:06.250Z,100997.48
2018-07-08T05:59:35.492Z,101005.97
2018-07-08T06:02:04.843Z,100997.05
2018-07-08T06:04:35.571Z,101004.45
2018-07-08T06:07:04.979Z,101008.22
2018-07-08T06:09:34.253Z,101008.14
2018-07-08T06:12:03.494Z,101010.63
2018-07-08T06:14:32.832Z,101003.50
2018-07-08T06:17:02.083Z,101003.61
2018-07-08T06:19:31.366Z,100998.11
2018-07-08T06:22:00.685Z,100994.77
2018-07-08T06:24:29.941Z,100991.50
2018-07-08T06:26:59.167Z,100983.72
2018-07-08T06:29:28.420Z,100987.22
2018-07-08T06:31:57.737Z,100988.92
2018-07-08T06:34:27.080Z,100981.55
2018-07-08T06:36:56.304Z,100975.29
2018-07-08T06:39:25.575Z,100975.59
2018-07-08T06:41:54.817Z,100983.11
2018-07-08T06:44:23.984Z,100985.44
2018-07-08T06:46:53.270Z,100979.75
2018-07-08T06:49:22.493Z,100981.14
2018-07-08T06:51:51.855Z,100984.95
2018-07-08T06:54:21.713Z,100994.17
2018-07-08T06:56:51.143Z,100986.55
2018-07-08T06:59:20.494Z,100990.58
2018-07-08T07:01:49.779Z,100990.46
2018-07-08T07:04:19.297Z,100982.25
2018-07-08T07:06:48.707Z,100979.72
2018-07-08T07:09:18.048Z,100981.50
2018-07-08T07:11:47.379Z,100976.86
2018-07-08T07:14:16.635Z,100975.94
2018-07-08T07:16:45.883Z,100976.52
2018-07-08T07:19:15.105Z,100984.75
2018-07-08T07:21:44.466Z,100975.59
2018-07-08T07:24:13.694Z,100970.02
2018-07-08T07:26:42.974Z,100973.11
2018-07-08T07:29:12.218Z,100971.39
2018-07-08T07:31:41.453Z,100968.46
2018-07-08T07:34:10.716Z,100972.45
2018-07-08T07:36:39.956Z,100978.48
2018-07-08T07:39:09.185Z,100975.13
2018-07-08T07:41:38.473Z,100968.66
2018-07-08T07:44:08.109Z,100967.45
2018-07-08T07:46:37.428Z,100966.94
2018-07-08T07:49:06.927Z,100967.48
2018-07-08T07:51:36.402Z,100968.23
2018-07-08T07:54:05.605Z,100970.05
2018-07-08T07:56:34.920Z,100961.09
2018-07-08T07:59:04.220Z,100964.22
2018-07-08T08:01:33.499Z,100966.55
2018-07-08T08:04:02.837Z,100957.56
2018-07-08T08:06:32.078Z,100960.62
2018-07-08T08:09:01.327Z,100962.52
2018-07-08T08:11:30.695Z,100955.39
2018-07-08T08:14:04.434Z,100966.14
2018-07-08T08:16:33.793Z,100966.70
2018-07-08T08:19:03.708Z,100965.87
2018-07-08T08:21:33.008Z,100964.92
2018-07-08T08:24:02.258Z,100956.77
2018-07-08T08:26:31.682Z,100966.05
2018-07-08T08:29:00.954Z,100963.41
2018-07-08T08:31:30.234Z,100963.33
2018-07-08T08:35:12.522Z,100961.27
2018-07-08T08:37:57.456Z,100967.11
2018-07-08T08:40:27.503Z,100965.02
2018-07-08T08:42:56.668Z,100969.68
2018-07-08T08:45:27.334Z,100966.72
2018-07-08T08:47:56.567Z,100963.03
2018-07-08T08:50:26.030Z,100973.86
2018-07-08T08:52:55.355Z,100973.04
2018-07-08T08:55:24.767Z,100973.13
2018-07-08T08:57:55.335Z,100972.72
2018-07-08T09:00:24.630Z,100984.12
2018-07-08T09:02:53.956Z,100985.50
2018-07-08T09:05:23.237Z,100982.16
2018-07-08T09:07:52.464Z,100976.78
2018-07-08T09:10:21.727Z,100976.30
2018-07-08T09:12:50.965Z,100979.05
2018-07-08T09:15:20.219Z,100970.44
2018-07-08T09:17:49.477Z,100967.47
2018-07-08T09:20:18.811Z,100969.17
2018-07-08T09:22:48.112Z,100964.36
2018-07-08T09:25:17.926Z,100963.09
2018-07-08T09:27:47.224Z,100962.30
2018-07-08T09:30:16.518Z,100964.25
2018-07-08T09:32:45.823Z,100966.72
2018-07-08T09:35:15.924Z,100965.89
2018-07-08T09:37:45.091Z,100955.67
2018-07-08T09:40:14.458Z,100965.72
2018-07-08T09:42:43.831Z,100965.20
2018-07-08T09:45:13.166Z,100971.02
2018-07-08T09:47:42.422Z,100968.34
2018-07-08T09:50:11.647Z,100965.05
2018-07-08T09:52:41.088Z,100962.68
2018-07-08T09:55:10.331Z,100950.08
2018-07-08T09:57:39.806Z,100955.62
2018-07-08T10:00:09.063Z,100962.03
2018-07-08T10:02:38.331Z,100966.95
2018-07-08T10:05:07.803Z,100954.50
2018-07-08T10:07:37.149Z,100962.50
2018-07-08T10:10:06.486Z,100954.33
2018-07-08T10:12:35.766Z,100952.30
2018-07-08T10:15:05.063Z,100940.06
2018-07-08T10:17:34.924Z,100953.44
2018-07-08T10:20:03.938Z,100952.16
2018-07-08T10:22:33.022Z,100963.83
2018-07-08T10:25:02.007Z,100962.08
2018-07-08T10:28:40.688Z,100954.92
2018-07-08T10:31:15.062Z,100950.03
2018-07-08T10:33:54.439Z,100967.09
2018-07-08T10:36:28.450Z,100960.90
2018-07-08T10:38:57.966Z,100948.05
2018-07-08T10:41:27.356Z,100961.02
2018-07-08T10:43:56.824Z,100961.95
2018-07-08T10:46:26.619Z,100967.03
2018-07-08T10:48:56.192Z,100955.87
2018-07-08T10:51:25.916Z,100966.97
2018-07-08T10:53:55.828Z,100966.41
2018-07-08T10:56:25.375Z,100953.80
2018-07-08T10:58:55.272Z,100951.83
2018-07-08T11:01:24.780Z,100937.14
2018-07-08T11:03:54.284Z,100935.20
2018-07-08T11:06:23.743Z,100932.84
2018-07-08T11:08:53.364Z,100926.20
2018-07-08T11:11:22.870Z,100930.23
2018-07-08T11:13:52.313Z,100938.14
2018-07-08T11:16:21.967Z,100929.17
2018-07-08T11:18:51.424Z,100933.39
2018-07-08T11:21:21.065Z,100926.36
2018-07-08T11:23:50.468Z,100924.56
2018-07-08T11:26:19.971Z,100914.99
2018-07-08T11:28:49.456Z,100920.52
2018-07-08T11:31:19.102Z,100917.08
2018-07-08T11:33:48.554Z,100920.20
2018-07-08T11:36:18.095Z,100918.12
2018-07-08T11:38:47.556Z,100915.59
2018-07-08T11:41:17.105Z,100910.20
2018-07-08T11:43:46.805Z,100908.52
2018-07-08T11:46:16.321Z,100911.30
2018-07-08T11:48:45.793Z,100911.28
2018-07-08T11:51:15.265Z,100913.78
2018-07-08T11:53:45.030Z,100906.27
2018-07-08T11:56:15.105Z,100909.03
2018-07-08T11:58:45.416Z,100905.41
2018-07-08T12:01:15.441Z,100912.45
2018-07-08T12:03:44.991Z,100909.67
2018-07-08T12:06:14.651Z,100898.30
2018-07-08T12:08:44.137Z,100900.00
2018-07-08T12:11:13.743Z,100905.51
2018-07-08T12:13:43.188Z,100903.84
2018-07-08T12:16:12.749Z,100906.06
2018-07-08T12:18:42.112Z,100907.72
2018-07-08T12:21:11.490Z,100908.56
2018-07-08T12:23:42.643Z,100898.89
2018-07-08T12:26:12.456Z,100900.23
2018-07-08T12:28:41.827Z,100893.55
2018-07-08T12:31:11.262Z,100897.28
2018-07-08T12:33:40.632Z,100895.74
2018-07-08T12:36:10.456Z,100886.93
2018-07-08T12:38:39.916Z,100893.97
2018-07-08T12:41:09.445Z,100887.34
2018-07-08T12:43:38.896Z,100895.05
2018-07-08T12:46:08.055Z,100894.63
2018-07-08T12:48:37.492Z,100880.69
2018-07-08T12:51:07.072Z,100876.05
2018-07-08T12:53:36.698Z,100871.77
2018-07-08T12:56:05.993Z,100876.10
2018-07-08T12:58:35.309Z,100872.61
2018-07-08T13:01:04.585Z,100879.28
2018-07-08T13:03:33.838Z,100867.87
2018-07-08T13:06:03.299Z,100864.92
2018-07-08T13:08:32.511Z,100865.34
2018-07-08T13:11:01.882Z,100866.42
2018-07-08T13:13:31.058Z,100858.09
2018-07-08T13:16:00.368Z,100864.91
2018-07-08T13:18:29.691Z,100869.97
2018-07-08T13:20:59.091Z,100868.42
2018-07-08T13:23:28.269Z,100866.70
2018-07-08T13:25:57.606Z,100864.48
2018-07-08T13:28:27.007Z,100865.88
2018-07-08T13:30:56.407Z,100865.04
2018-07-08T13:33:25.922Z,100859.01
2018-07-08T13:35:55.206Z,100853.87
2018-07-08T13:38:24.466Z,100846.59
2018-07-08T13:40:53.711Z,100852.09
2018-07-08T13:43:23.081Z,100846.54
2018-07-08T13:45:52.383Z,100852.63
2018-07-08T13:48:21.570Z,100850.52
2018-07-08T13:50:50.888Z,100856.83
2018-07-08T13:53:20.082Z,100852.44
2018-07-08T13:55:50.383Z,100854.75
2018-07-08T13:58:19.585Z,100856.11
2018-07-08T14:00:49.251Z,100852.30
2018-07-08T14:03:18.494Z,100854.06
2018-07-08T14:05:47.658Z,100852.35
2018-07-08T14:08:16.917Z,100853.73
2018-07-08T14:10:46.484Z,100833.04
2018-07-08T14:13:15.687Z,100842.38
2018-07-08T14:15:45.042Z,100830.51
2018-07-08T14:18:14.285Z,100834.13
2018-07-08T14:20:43.651Z,100843.01
2018-07-08T14:23:12.974Z,100847.95
2018-07-08T14:25:42.277Z,100831.69
2018-07-08T14:28:11.493Z,100828.86
2018-07-08T14:30:40.823Z,100830.03
2018-07-08T14:33:10.034Z,100829.91
2018-07-08T14:35:39.333Z,100832.08
2018-07-08T14:38:08.586Z,100831.66
2018-07-08T14:40:37.978Z,100831.11
2018-07-08T14:43:07.231Z,100826.09
2018-07-08T14:45:36.644Z,100831.79
2018-07-08T14:48:05.934Z,100830.67
2018-07-08T14:50:35.185Z,100834.28
2018-07-08T14:53:04.639Z,100834.98
2018-07-08T14:55:33.915Z,100827.92
2018-07-08T14:58:03.151Z,100821.19
2018-07-08T15:00:32.418Z,100820.44
2018-07-08T15:03:01.855Z,100827.41
2018-07-08T15:05:31.214Z,100826.45
2018-07-08T15:08:01.008Z,100830.51
2018-07-08T15:10:30.574Z,100829.56
2018-07-08T15:12:59.966Z,100821.69
2018-07-08T15:15:29.306Z,100817.75
2018-07-08T15:17:58.683Z,100814.67
2018-07-08T15:20:27.946Z,100820.80
2018-07-08T15:22:57.189Z,100813.48
2018-07-08T15:25:26.466Z,100820.71
2018-07-08T15:27:55.772Z,100816.02
2018-07-08T15:30:25.066Z,100819.55
2018-07-08T15:32:54.387Z,100820.22
2018-07-08T15:35:23.609Z,100809.55
2018-07-08T15:37:52.903Z,100790.47
2018-07-08T15:40:22.146Z,100812.28
2018-07-08T15:42:51.690Z,100809.39
2018-07-08T15:45:20.982Z,100807.14
2018-07-08T15:47:50.384Z,100807.41
2018-07-08T15:50:19.670Z,100810.09
2018-07-08T15:52:48.998Z,100812.77
2018-07-08T15:55:18.370Z,100804.81
2018-07-08T15:57:47.595Z,100809.92
2018-07-08T16:00:16.885Z,100804.73
2018-07-08T16:02:46.571Z,100810.64
2018-07-08T16:05:15.779Z,100801.49
2018-07-08T16:07:45.122Z,100799.31
2018-07-08T16:10:14.393Z,100799.84
2018-07-08T16:12:43.696Z,100801.55
2018-07-08T16:15:12.997Z,100791.28
2018-07-08T16:17:42.603Z,100792.95
2018-07-08T16:20:11.897Z,100797.95
2018-07-08T16:22:41.221Z,100798.16
2018-07-08T16:25:10.493Z,100797.61
2018-07-08T16:27:39.749Z,100787.13
2018-07-08T16:30:08.970Z,100790.47
2018-07-08T16:32:38.413Z,100796.73
2018-07-08T16:35:07.856Z,100797.59
2018-07-08T16:37:37.113Z,100800.63
2018-07-08T16:40:06.467Z,100792.55
2018-07-08T16:42:35.711Z,100792.86
2018-07-08T16:45:04.958Z,100793.99
2018-07-08T16:47:34.301Z,100787.89
2018-07-08T16:50:03.590Z,100790.36
2018-07-08T16:52:33.005Z,100792.28
2018-07-08T16:55:02.295Z,100790.34
2018-07-08T16:57:31.729Z,100789.80
2018-07-08T17:00:01.021Z,100786.66
2018-07-08T17:02:30.451Z,100786.47
2018-07-08T17:04:59.562Z,100779.60
2018-07-08T17:07:28.913Z,100770.69
2018-07-08T17:09:58.273Z,100776.11
2018-07-08T17:12:27.544Z,100779.77
2018-07-08T17:14:56.771Z,100781.55
2018-07-08T17:17:25.761Z,100779.32
2018-07-08T17:19:55.907Z,100784.16
2018-07-08T17:22:25.510Z,100769.59
2018-07-08T17:24:55.135Z,100776.59
2018-07-08T17:27:24.567Z,100771.94
2018-07-08T17:29:53.963Z,100768.13
2018-07-08T17:32:23.266Z,100775.20
2018-07-08T17:34:52.526Z,100768.45
2018-07-08T17:37:21.765Z,100769.95
2018-07-08T17:39:51.103Z,100774.83
2018-07-08T17:42:20.518Z,100775.52
2018-07-08T17:44:49.924Z,100770.34
2018-07-08T17:47:19.287Z,100767.72
2018-07-08T17:49:48.558Z,100763.08
2018-07-08T17:52:17.875Z,100761.83
2018-07-08T17:54:47.163Z,100760.78
2018-07-08T17:57:16.573Z,100760.17
2018-07-08T17:59:45.823Z,100756.77
2018-07-08T18:02:15.083Z,100756.45
2018-07-08T18:04:44.457Z,100756.95
2018-07-08T18:07:13.790Z,100762.11
2018-07-08T18:09:43.034Z,100754.71
2018-07-08T18:12:12.377Z,100760.28
2018-07-08T18:14:41.624Z,100763.80
2018-07-08T18:17:10.870Z,100758.34
2018-07-08T18:19:40.255Z,100763.38
2018-07-08T18:22:09.463Z,100753.38
2018-07-08T18:24:38.789Z,100754.70
2018-07-08T18:27:08.054Z,100754.81
2018-07-08T18:29:37.386Z,100756.97
2018-07-08T18:32:06.862Z,100757.59
2018-07-08T18:34:37.105Z,100761.16
2018-07-08T18:37:06.362Z,100753.58
2018-07-08T18:39:35.740Z,100761.41
2018-07-08T18:42:05.351Z,100762.23
2018-07-08T18:44:35.128Z,100763.73
2018-07-08T18:47:04.810Z,100769.53
2018-07-08T18:49:34.894Z,100765.58
2018-07-08T18:52:04.118Z,100770.02
2018-07-08T18:54:33.472Z,100774.53
2018-07-08T18:57:02.734Z,100776.59
2018-07-08T18:59:32.333Z,100770.23
2018-07-08T19:02:01.535Z,100772.33
2018-07-08T19:04:31.253Z,100765.83
2018-07-08T19:07:00.530Z,100765.17
2018-07-08T19:09:29.758Z,100774.32
2018-07-08T19:11:59.022Z,100769.97
2018-07-08T19:14:28.362Z,100773.19
2018-07-08T19:16:57.681Z,100779.55
2018-07-08T19:19:27.071Z,100780.19
2018-07-08T19:21:56.355Z,100777.76
2018-07-08T19:24:25.598Z,100777.61
2018-07-08T19:26:54.750Z,100784.98
2018-07-08T19:29:24.184Z,100784.67
2018-07-08T19:31:53.535Z,100784.58
2018-07-08T19:34:22.771Z,100780.16
2018-07-08T19:36:52.020Z,100791.09
2018-07-08T19:39:21.282Z,100787.77
2018-07-08T19:41:51.028Z,100786.44
2018-07-08T19:44:21.216Z,100785.94
2018-07-08T19:46:50.681Z,100790.91
2018-07-08T19:49:19.922Z,100795.81
2018-07-08T19:51:49.263Z,100795.09
2018-07-08T19:54:18.626Z,100787.36
2018-07-08T19:56:47.896Z,100790.45
2018-07-08T19:59:17.132Z,100796.46
2018-07-08T20:01:46.374Z,100794.56
2018-07-08T20:04:15.608Z,100792.63
2018-07-08T20:06:44.758Z,100795.63
2018-07-08T20:09:13.909Z,100797.50
2018-07-08T20:11:43.142Z,100801.85
2018-07-08T20:14:12.524Z,100796.69
2018-07-08T20:16:41.808Z,100797.62
2018-07-08T20:19:11.216Z,100798.27
2018-07-08T20:21:40.990Z,100807.80
2018-07-08T20:24:10.242Z,100812.58
2018-07-08T20:26:39.481Z,100815.80
2018-07-08T20:29:08.622Z,100811.91
2018-07-08T20:31:37.874Z,100807.72
2018-07-08T20:34:07.102Z,100816.34
2018-07-08T20:36:36.363Z,100815.88
2018-07-08T20:39:06.902Z,100816.53
2018-07-08T20:41:36.657Z,100822.12
2018-07-08T20:44:06.082Z,100825.21
2018-07-08T20:46:35.434Z,100825.69
2018-07-08T20:49:04.676Z,100824.72
2018-07-08T20:51:34.167Z,100828.81
2018-07-08T20:54:03.469Z,100826.66
2018-07-08T20:56:32.773Z,100823.02
2018-07-08T20:59:02.192Z,100822.36
2018-07-08T21:01:31.544Z,100822.70
2018-07-08T21:04:00.990Z,100822.83
2018-07-08T21:06:30.353Z,100827.54
2018-07-08T21:08:59.594Z,100825.95
2018-07-08T21:11:29.866Z,100828.69
2018-07-08T21:13:59.220Z,100829.79
2018-07-08T21:16:28.507Z,100833.52
2018-07-08T21:18:57.831Z,100828.78
2018-07-08T21:24:30.398Z,100825.83
2018-07-08T21:26:59.697Z,100826.83
2018-07-08T21:29:31.283Z,100827.64
2018-07-08T21:32:00.595Z,100822.70
2018-07-08T21:34:29.976Z,100830.27
2018-07-08T21:36:59.286Z,100826.58
2018-07-08T21:39:28.549Z,100822.22
2018-07-08T21:41:57.845Z,100824.41
2018-07-08T21:44:27.244Z,100826.42
2018-07-08T21:46:56.510Z,100822.81
2018-07-08T21:49:25.730Z,100830.09
2018-07-08T21:51:54.915Z,100832.42
2018-07-08T21:54:24.162Z,100827.20
2018-07-08T21:56:53.695Z,100825.71
2018-07-08T21:59:23.054Z,100831.16
2018-07-08T22:02:00.237Z,100839.63
2018-07-08T22:04:29.245Z,100835.77
2018-07-08T22:07:03.325Z,100837.05
2018-07-08T22:09:32.305Z,100840.30
2018-07-08T22:12:01.324Z,100840.99
2018-07-08T22:14:30.328Z,100847.97
2018-07-08T22:16:59.491Z,100837.61
2018-07-08T22:19:28.886Z,100841.83
2018-07-08T22:21:58.077Z,100844.22
2018-07-08T22:24:27.558Z,100847.27
2018-07-08T22:26:56.916Z,100846.31
2018-07-08T22:29:26.250Z,100842.66
2018-07-08T22:31:55.594Z,100840.52
2018-07-08T22:34:24.913Z,100843.66
2018-07-08T22:36:54.197Z,100841.42
2018-07-08T22:39:23.466Z,100850.96
2018-07-08T22:41:52.895Z,100836.17
2018-07-08T22:44:22.161Z,100843.89
2018-07-08T22:46:51.486Z,100844.06
2018-07-08T22:49:20.723Z,100837.61
2018-07-08T22:51:50.111Z,100845.25
2018-07-08T22:54:19.444Z,100843.89
2018-07-08T22:56:48.736Z,100847.35
2018-07-08T22:59:18.049Z,100843.00
2018-07-08T23:01:58.094Z,100832.84
2018-07-08T23:04:27.395Z,100844.20
2018-07-08T23:06:56.695Z,100848.41
2018-07-08T23:09:26.014Z,100848.77
2018-07-08T23:11:55.373Z,100848.95
2018-07-08T23:14:24.708Z,100844.35
2018-07-08T23:16:53.976Z,100840.93
2018-07-08T23:19:23.299Z,100843.92
2018-07-08T23:21:52.595Z,100839.92
2018-07-08T23:24:21.889Z,100841.20
2018-07-08T23:26:51.426Z,100837.53
2018-07-08T23:29:20.774Z,100830.94
2018-07-08T23:31:50.171Z,100833.59
2018-07-08T23:34:19.513Z,100835.10
2018-07-08T23:36:48.947Z,100834.95
2018-07-08T23:39:18.203Z,100835.13
2018-07-08T23:41:47.626Z,100835.02
2018-07-08T23:44:17.014Z,100834.81
2018-07-08T23:46:46.553Z,100831.67
2018-07-08T23:49:15.830Z,100830.40
2018-07-08T23:51:45.234Z,100833.25
2018-07-08T23:54:14.797Z,100833.92
2018-07-08T23:56:44.126Z,100833.86
2018-07-08T23:59:13.286Z,100837.73
